createdAt,value
2018-03-06T00:00:27.488Z,969.82
2018-03-06T00:01:27.389Z,969.81
2018-03-06T00:03:20.112Z,969.79
2018-03-06T00:04:20.014Z,969.73
2018-03-06T00:06:12.772Z,969.72
2018-03-06T00:07:12.667Z,969.74
2018-03-06T00:09:05.513Z,969.72
2018-03-06T00:10:05.407Z,969.73
2018-03-06T00:11:58.180Z,969.71
2018-03-06T00:12:58.063Z,969.69
2018-03-06T00:14:50.818Z,969.73
2018-03-06T00:15:50.718Z,969.73
2018-03-06T00:17:43.468Z,969.74
2018-03-06T00:18:43.363Z,969.73
2018-03-06T00:20:36.621Z,969.72
2018-03-06T00:21:36.517Z,969.74
2018-03-06T00:23:29.287Z,969.70
2018-03-06T00:24:29.159Z,969.72
2018-03-06T00:26:22.058Z,969.70
2018-03-06T00:27:21.909Z,969.66
2018-03-06T00:29:14.672Z,969.70
2018-03-06T00:30:14.561Z,969.65
2018-03-06T00:32:07.314Z,969.71
2018-03-06T00:33:07.208Z,969.65
2018-03-06T00:35:00.001Z,969.63
2018-03-06T00:35:59.894Z,969.64
2018-03-06T00:37:52.698Z,969.63
2018-03-06T00:38:52.616Z,969.66
2018-03-06T00:40:45.463Z,969.66
2018-03-06T00:41:45.345Z,969.61
2018-03-06T00:43:38.207Z,969.63
2018-03-06T00:44:38.090Z,969.63
2018-03-06T00:46:30.863Z,969.64
2018-03-06T00:47:30.853Z,969.60
2018-03-06T00:49:23.499Z,969.58
2018-03-06T00:50:23.430Z,969.56
2018-03-06T00:52:16.158Z,969.50
2018-03-06T00:53:16.048Z,969.49
2018-03-06T00:55:08.786Z,969.45
2018-03-06T00:56:08.698Z,969.40
2018-03-06T00:58:01.458Z,969.39
2018-03-06T00:59:01.334Z,969.37
2018-03-06T01:00:54.170Z,969.36
2018-03-06T01:01:53.994Z,969.40
2018-03-06T01:03:46.750Z,969.33
2018-03-06T01:04:46.627Z,969.33
2018-03-06T01:06:39.393Z,969.34
2018-03-06T01:07:39.273Z,969.37
2018-03-06T01:09:32.039Z,969.31
2018-03-06T01:10:31.932Z,969.32
2018-03-06T01:12:24.683Z,969.31
2018-03-06T01:13:24.576Z,969.29
2018-03-06T01:15:17.350Z,969.22
2018-03-06T01:16:17.256Z,969.23
2018-03-06T01:18:09.970Z,969.26
2018-03-06T01:19:09.866Z,969.22
2018-03-06T01:21:02.636Z,969.21
2018-03-06T01:22:02.506Z,969.21
2018-03-06T01:23:55.268Z,969.22
2018-03-06T01:24:55.176Z,969.23
2018-03-06T01:26:47.939Z,969.23
2018-03-06T01:27:47.813Z,969.24
2018-03-06T01:29:40.567Z,969.17
2018-03-06T01:30:40.456Z,969.13
2018-03-06T01:32:33.219Z,969.13
2018-03-06T01:33:33.103Z,969.13
2018-03-06T01:35:25.860Z,969.18
2018-03-06T01:36:25.757Z,969.15
2018-03-06T01:38:18.530Z,969.12
2018-03-06T01:39:18.533Z,969.15
2018-03-06T01:41:11.207Z,969.13
2018-03-06T01:42:11.100Z,969.09
2018-03-06T01:44:03.804Z,969.08
2018-03-06T01:45:03.715Z,969.06
2018-03-06T01:46:56.460Z,969.04
2018-03-06T01:47:56.346Z,969.08
2018-03-06T01:49:49.095Z,969.04
2018-03-06T01:50:48.981Z,969.04
2018-03-06T01:52:41.740Z,969.00
2018-03-06T01:53:41.648Z,969.00
2018-03-06T01:55:34.389Z,968.96
2018-03-06T01:56:34.278Z,968.94
2018-03-06T01:58:27.037Z,968.94
2018-03-06T01:59:26.929Z,968.95
2018-03-06T02:01:19.714Z,968.94
2018-03-06T02:02:19.570Z,968.94
2018-03-06T02:04:12.317Z,968.90
2018-03-06T02:05:12.251Z,968.89
2018-03-06T02:07:04.988Z,968.86
2018-03-06T02:08:04.860Z,968.85
2018-03-06T02:09:57.611Z,968.78
2018-03-06T02:10:57.513Z,968.82
2018-03-06T02:12:50.277Z,968.80
2018-03-06T02:13:50.157Z,968.79
2018-03-06T02:15:42.921Z,968.80
2018-03-06T02:16:42.823Z,968.79
2018-03-06T02:18:35.585Z,968.76
2018-03-06T02:19:35.457Z,968.76
2018-03-06T02:21:28.200Z,968.73
2018-03-06T02:22:28.114Z,968.71
2018-03-06T02:24:20.866Z,968.66
2018-03-06T02:25:20.747Z,968.68
2018-03-06T02:27:13.510Z,968.66
2018-03-06T02:28:13.402Z,968.66
2018-03-06T02:30:06.189Z,968.65
2018-03-06T02:31:06.040Z,968.60
2018-03-06T02:32:58.819Z,968.61
2018-03-06T02:33:58.690Z,968.55
2018-03-06T02:35:51.464Z,968.57
2018-03-06T02:36:51.341Z,968.53
2018-03-06T02:38:44.080Z,968.53
2018-03-06T02:39:43.982Z,968.52
2018-03-06T02:41:36.770Z,968.49
2018-03-06T02:42:36.655Z,968.46
2018-03-06T02:44:29.375Z,968.45
2018-03-06T02:45:29.290Z,968.44
2018-03-06T02:47:22.605Z,968.43
2018-03-06T02:48:22.440Z,968.44
2018-03-06T02:50:15.201Z,968.42
2018-03-06T02:51:15.085Z,968.42
2018-03-06T02:53:07.846Z,968.35
2018-03-06T02:54:07.747Z,968.35
2018-03-06T02:56:00.479Z,968.29
2018-03-06T02:57:00.394Z,968.26
2018-03-06T02:58:53.137Z,968.26
2018-03-06T02:59:53.030Z,968.24
2018-03-06T03:01:45.807Z,968.23
2018-03-06T03:02:45.682Z,968.23
2018-03-06T03:04:38.533Z,968.23
2018-03-06T03:05:38.421Z,968.24
2018-03-06T03:07:31.180Z,968.23
2018-03-06T03:08:31.075Z,968.21
2018-03-06T03:10:24.362Z,968.25
2018-03-06T03:11:24.230Z,968.24
2018-03-06T03:13:17.319Z,968.25
2018-03-06T03:14:17.199Z,968.24
2018-03-06T03:16:10.030Z,968.27
2018-03-06T03:17:09.942Z,968.28
2018-03-06T03:19:02.788Z,968.22
2018-03-06T03:20:02.683Z,968.24
2018-03-06T03:21:55.541Z,968.21
2018-03-06T03:22:55.443Z,968.18
2018-03-06T03:24:48.287Z,968.18
2018-03-06T03:25:48.178Z,968.18
2018-03-06T03:27:41.129Z,968.24
2018-03-06T03:28:40.934Z,968.22
2018-03-06T03:30:33.692Z,968.18
2018-03-06T03:31:33.598Z,968.19
2018-03-06T03:33:26.426Z,968.16
2018-03-06T03:34:26.321Z,968.13
2018-03-06T03:36:19.628Z,968.11
2018-03-06T03:37:19.489Z,968.07
2018-03-06T03:39:12.351Z,968.04
2018-03-06T03:40:12.288Z,968.07
2018-03-06T03:42:05.119Z,968.06
2018-03-06T03:43:04.986Z,968.03
2018-03-06T03:44:57.924Z,968.03
2018-03-06T03:45:57.781Z,968.03
2018-03-06T03:47:50.592Z,967.99
2018-03-06T03:48:50.480Z,967.99
2018-03-06T03:50:43.814Z,967.99
2018-03-06T03:51:43.232Z,967.98
2018-03-06T03:53:36.121Z,967.93
2018-03-06T03:54:35.981Z,967.95
2018-03-06T03:56:28.828Z,967.92
2018-03-06T03:57:28.733Z,967.90
2018-03-06T03:59:21.508Z,967.85
2018-03-06T04:00:21.378Z,967.87
2018-03-06T04:02:14.327Z,967.88
2018-03-06T04:03:14.226Z,967.84
2018-03-06T04:05:07.096Z,967.86
2018-03-06T04:06:06.988Z,967.85
2018-03-06T04:07:59.830Z,967.88
2018-03-06T04:08:59.722Z,967.91
2018-03-06T04:10:52.597Z,967.91
2018-03-06T04:11:52.470Z,967.90
2018-03-06T04:13:45.323Z,967.91
2018-03-06T04:14:45.232Z,967.86
2018-03-06T04:16:38.092Z,967.86
2018-03-06T04:17:37.973Z,967.87
2018-03-06T04:19:30.842Z,967.85
2018-03-06T04:20:30.728Z,967.88
2018-03-06T04:22:23.606Z,967.92
2018-03-06T04:23:23.464Z,967.91
2018-03-06T04:25:16.323Z,967.91
2018-03-06T04:26:16.223Z,967.92
2018-03-06T04:28:09.090Z,967.93
2018-03-06T04:29:08.969Z,967.96
2018-03-06T04:31:01.845Z,967.93
2018-03-06T04:32:01.866Z,967.88
2018-03-06T04:33:54.714Z,967.90
2018-03-06T04:34:54.575Z,967.87
2018-03-06T04:36:47.454Z,967.89
2018-03-06T04:37:47.323Z,967.87
2018-03-06T04:39:40.235Z,967.87
2018-03-06T04:40:40.067Z,967.85
2018-03-06T04:42:32.958Z,967.83
2018-03-06T04:43:32.829Z,967.80
2018-03-06T04:45:25.727Z,967.80
2018-03-06T04:46:25.567Z,967.79
2018-03-06T04:48:18.445Z,967.80
2018-03-06T04:49:18.331Z,967.75
2018-03-06T04:51:11.183Z,967.81
2018-03-06T04:52:11.132Z,967.77
2018-03-06T04:54:03.948Z,967.75
2018-03-06T04:55:03.831Z,967.76
2018-03-06T04:56:56.679Z,967.77
2018-03-06T04:57:56.585Z,967.75
2018-03-06T04:59:49.469Z,967.79
2018-03-06T05:00:49.322Z,967.78
2018-03-06T05:02:42.192Z,967.78
2018-03-06T05:03:42.071Z,967.76
2018-03-06T05:05:34.937Z,967.73
2018-03-06T05:06:34.820Z,967.76
2018-03-06T05:08:27.676Z,967.76
2018-03-06T05:09:27.571Z,967.74
2018-03-06T05:11:20.441Z,967.74
2018-03-06T05:12:20.326Z,967.74
2018-03-06T05:14:13.181Z,967.74
2018-03-06T05:15:13.069Z,967.74
2018-03-06T05:17:05.939Z,967.74
2018-03-06T05:18:05.815Z,967.70
2018-03-06T05:19:58.671Z,967.72
2018-03-06T05:20:58.569Z,967.71
2018-03-06T05:22:51.431Z,967.68
2018-03-06T05:23:51.319Z,967.73
2018-03-06T05:25:44.211Z,967.74
2018-03-06T05:26:44.073Z,967.76
2018-03-06T05:28:36.932Z,967.81
2018-03-06T05:29:36.817Z,967.79
2018-03-06T05:31:29.720Z,967.77
2018-03-06T05:32:29.570Z,967.85
2018-03-06T05:34:23.490Z,967.81
2018-03-06T05:35:23.355Z,967.84
2018-03-06T05:37:16.211Z,967.84
2018-03-06T05:38:16.095Z,967.83
2018-03-06T05:40:08.940Z,967.82
2018-03-06T05:41:08.857Z,967.80
2018-03-06T05:43:01.830Z,967.76
2018-03-06T05:44:01.700Z,967.80
2018-03-06T05:45:54.558Z,967.77
2018-03-06T05:46:54.438Z,967.76
2018-03-06T05:48:47.308Z,967.73
2018-03-06T05:49:47.188Z,967.73
2018-03-06T05:51:40.049Z,967.76
2018-03-06T05:52:39.936Z,967.73
2018-03-06T05:54:32.817Z,967.75
2018-03-06T05:55:32.689Z,967.75
2018-03-06T05:57:25.540Z,967.71
2018-03-06T05:58:25.439Z,967.75
2018-03-06T06:00:18.302Z,967.77
2018-03-06T06:01:18.182Z,967.75
2018-03-06T06:03:11.151Z,967.77
2018-03-06T06:04:10.930Z,967.79
2018-03-06T06:06:03.798Z,967.77
2018-03-06T06:07:03.683Z,967.77
2018-03-06T06:08:56.541Z,967.85
2018-03-06T06:09:56.438Z,967.80
2018-03-06T06:11:49.321Z,967.80
2018-03-06T06:12:49.183Z,967.75
2018-03-06T06:14:42.048Z,967.80
2018-03-06T06:15:41.931Z,967.77
2018-03-06T06:17:34.798Z,967.78
2018-03-06T06:18:34.684Z,967.76
2018-03-06T06:20:27.544Z,967.77
2018-03-06T06:21:27.444Z,967.76
2018-03-06T06:23:20.308Z,967.73
2018-03-06T06:24:20.186Z,967.79
2018-03-06T06:26:13.047Z,967.73
2018-03-06T06:27:12.930Z,967.69
2018-03-06T06:29:06.320Z,967.70
2018-03-06T06:30:06.193Z,967.72
2018-03-06T06:32:02.020Z,967.70
2018-03-06T06:33:01.922Z,967.70
2018-03-06T06:34:55.313Z,967.66
2018-03-06T06:35:55.172Z,967.70
2018-03-06T06:37:51.016Z,967.64
2018-03-06T06:38:50.895Z,967.61
2018-03-06T06:40:43.764Z,967.64
2018-03-06T06:41:43.643Z,967.63
2018-03-06T06:43:38.150Z,967.60
2018-03-06T06:44:37.933Z,967.61
2018-03-06T06:46:31.293Z,967.62
2018-03-06T06:47:31.195Z,967.60
2018-03-06T06:49:24.082Z,967.64
2018-03-06T06:50:23.956Z,967.63
2018-03-06T06:52:16.803Z,967.68
2018-03-06T06:53:16.703Z,967.68
2018-03-06T06:55:09.566Z,967.69
2018-03-06T06:56:09.467Z,967.70
2018-03-06T06:58:02.293Z,967.71
2018-03-06T06:59:02.186Z,967.70
2018-03-06T07:00:55.058Z,967.70
2018-03-06T07:01:54.951Z,967.72
2018-03-06T07:03:47.797Z,967.73
2018-03-06T07:04:47.687Z,967.70
2018-03-06T07:06:40.558Z,967.73
2018-03-06T07:07:40.436Z,967.72
2018-03-06T07:09:33.294Z,967.72
2018-03-06T07:10:33.192Z,967.70
2018-03-06T07:12:26.056Z,967.74
2018-03-06T07:13:25.943Z,967.69
2018-03-06T07:15:19.310Z,967.68
2018-03-06T07:16:19.198Z,967.69
2018-03-06T07:18:11.968Z,967.70
2018-03-06T07:19:11.861Z,967.67
2018-03-06T07:21:04.725Z,967.67
2018-03-06T07:22:04.595Z,967.68
2018-03-06T07:23:57.463Z,967.64
2018-03-06T07:24:57.344Z,967.63
2018-03-06T07:26:50.217Z,967.67
2018-03-06T07:27:50.090Z,967.66
2018-03-06T07:29:42.995Z,967.69
2018-03-06T07:30:42.837Z,967.71
2018-03-06T07:32:35.728Z,967.75
2018-03-06T07:33:35.591Z,967.71
2018-03-06T07:35:28.475Z,967.76
2018-03-06T07:36:28.347Z,967.76
2018-03-06T07:38:21.198Z,967.76
2018-03-06T07:39:21.108Z,967.76
2018-03-06T07:41:13.961Z,967.76
2018-03-06T07:42:13.862Z,967.70
2018-03-06T07:44:06.708Z,967.65
2018-03-06T07:45:06.593Z,967.63
2018-03-06T07:46:59.452Z,967.61
2018-03-06T07:47:59.407Z,967.64
2018-03-06T07:49:52.208Z,967.58
2018-03-06T07:50:52.086Z,967.56
2018-03-06T07:52:45.046Z,967.52
2018-03-06T07:53:44.843Z,967.55
2018-03-06T07:55:38.207Z,967.52
2018-03-06T07:56:38.115Z,967.50
2018-03-06T07:58:30.979Z,967.51
2018-03-06T07:59:30.848Z,967.52
2018-03-06T08:01:23.710Z,967.51
2018-03-06T08:02:23.618Z,967.48
2018-03-06T08:04:16.489Z,967.46
2018-03-06T08:05:16.360Z,967.49
2018-03-06T08:07:09.320Z,967.48
2018-03-06T08:08:09.208Z,967.47
2018-03-06T08:10:02.065Z,967.40
2018-03-06T08:11:01.963Z,967.42
2018-03-06T08:12:54.832Z,967.40
2018-03-06T08:13:54.713Z,967.39
2018-03-06T08:15:47.570Z,967.43
2018-03-06T08:16:47.448Z,967.39
2018-03-06T08:18:40.302Z,967.41
2018-03-06T08:19:40.212Z,967.40
2018-03-06T08:21:33.122Z,967.37
2018-03-06T08:22:32.959Z,967.40
2018-03-06T08:24:25.815Z,967.36
2018-03-06T08:25:25.710Z,967.33
2018-03-06T08:27:18.588Z,967.39
2018-03-06T08:28:18.454Z,967.39
2018-03-06T08:30:11.303Z,967.40
2018-03-06T08:31:11.199Z,967.40
2018-03-06T08:33:04.060Z,967.37
2018-03-06T08:34:03.953Z,967.37
2018-03-06T08:35:56.835Z,967.44
2018-03-06T08:36:56.781Z,967.42
2018-03-06T08:38:49.577Z,967.43
2018-03-06T08:39:49.474Z,967.39
2018-03-06T08:41:42.343Z,967.39
2018-03-06T08:42:42.207Z,967.38
2018-03-06T08:44:36.114Z,967.42
2018-03-06T08:45:35.971Z,967.41
2018-03-06T08:47:28.853Z,967.43
2018-03-06T08:48:28.729Z,967.40
2018-03-06T08:50:22.078Z,967.45
2018-03-06T08:51:21.471Z,967.40
2018-03-06T08:53:14.328Z,967.44
2018-03-06T08:54:14.243Z,967.47
2018-03-06T08:56:07.099Z,967.49
2018-03-06T08:57:06.977Z,967.46
2018-03-06T08:58:59.832Z,967.52
2018-03-06T08:59:59.732Z,967.50
2018-03-06T09:01:52.584Z,967.51
2018-03-06T09:02:52.474Z,967.54
2018-03-06T09:04:45.849Z,967.52
2018-03-06T09:05:45.750Z,967.51
2018-03-06T09:07:38.584Z,967.51
2018-03-06T09:08:38.485Z,967.56
2018-03-06T09:10:31.345Z,967.56
2018-03-06T09:11:31.229Z,967.52
2018-03-06T09:13:24.082Z,967.50
2018-03-06T09:14:23.986Z,967.52
2018-03-06T09:16:16.864Z,967.48
2018-03-06T09:17:16.736Z,967.46
2018-03-06T09:19:09.587Z,967.44
2018-03-06T09:20:09.483Z,967.37
2018-03-06T09:22:02.363Z,967.40
2018-03-06T09:23:02.229Z,967.39
2018-03-06T09:24:55.627Z,967.38
2018-03-06T09:25:55.495Z,967.40
2018-03-06T09:27:48.403Z,967.36
2018-03-06T09:28:48.243Z,967.39
2018-03-06T09:30:41.127Z,967.36
2018-03-06T09:31:40.991Z,967.39
2018-03-06T09:33:33.868Z,967.37
2018-03-06T09:34:33.753Z,967.36
2018-03-06T09:36:26.604Z,967.42
2018-03-06T09:37:26.502Z,967.38
2018-03-06T09:39:19.365Z,967.40
2018-03-06T09:40:19.251Z,967.34
2018-03-06T09:42:12.089Z,967.39
2018-03-06T09:43:11.989Z,967.37
2018-03-06T09:45:04.867Z,967.35
2018-03-06T09:46:04.753Z,967.35
2018-03-06T09:47:57.598Z,967.38
2018-03-06T09:48:57.486Z,967.37
2018-03-06T09:50:50.391Z,967.37
2018-03-06T09:51:50.250Z,967.37
2018-03-06T09:53:43.085Z,967.39
2018-03-06T09:54:42.993Z,967.40
2018-03-06T09:56:35.850Z,967.39
2018-03-06T09:57:35.753Z,967.37
2018-03-06T09:59:28.594Z,967.38
2018-03-06T10:00:28.488Z,967.41
2018-03-06T10:02:21.369Z,967.43
2018-03-06T10:03:21.237Z,967.44
2018-03-06T10:05:14.093Z,967.43
2018-03-06T10:06:13.998Z,967.37
2018-03-06T10:08:06.880Z,967.39
2018-03-06T10:09:06.742Z,967.36
2018-03-06T10:10:59.592Z,967.42
2018-03-06T10:11:59.497Z,967.41
2018-03-06T10:13:52.347Z,967.36
2018-03-06T10:14:52.233Z,967.39
2018-03-06T10:16:45.090Z,967.39
2018-03-06T10:17:44.993Z,967.37
2018-03-06T10:19:38.376Z,967.40
2018-03-06T10:20:38.245Z,967.38
2018-03-06T10:22:31.139Z,967.37
2018-03-06T10:23:31.012Z,967.39
2018-03-06T10:25:23.859Z,967.41
2018-03-06T10:26:23.749Z,967.37
2018-03-06T10:28:16.608Z,967.39
2018-03-06T10:29:16.506Z,967.43
2018-03-06T10:31:09.389Z,967.39
2018-03-06T10:32:09.263Z,967.39
2018-03-06T10:34:02.137Z,967.40
2018-03-06T10:35:01.999Z,967.39
2018-03-06T10:36:55.376Z,967.37
2018-03-06T10:37:54.772Z,967.36
2018-03-06T10:39:47.602Z,967.38
2018-03-06T10:40:47.503Z,967.38
2018-03-06T10:42:40.379Z,967.37
2018-03-06T10:43:40.249Z,967.37
2018-03-06T10:45:33.100Z,967.33
2018-03-06T10:46:33.002Z,967.37
2018-03-06T10:48:25.865Z,967.39
2018-03-06T10:49:25.749Z,967.36
2018-03-06T10:51:18.594Z,967.37
2018-03-06T10:52:18.513Z,967.38
2018-03-06T10:54:11.358Z,967.39
2018-03-06T10:55:11.258Z,967.38
2018-03-06T10:57:04.095Z,967.37
2018-03-06T10:58:03.992Z,967.34
2018-03-06T10:59:56.859Z,967.37
2018-03-06T11:00:56.746Z,967.36
2018-03-06T11:02:49.600Z,967.34
2018-03-06T11:03:49.505Z,967.35
2018-03-06T11:05:42.456Z,967.33
2018-03-06T11:06:42.361Z,967.34
2018-03-06T11:08:35.184Z,967.34
2018-03-06T11:09:35.087Z,967.33
2018-03-06T11:11:28.066Z,967.30
2018-03-06T11:12:28.018Z,967.31
2018-03-06T11:14:20.818Z,967.35
2018-03-06T11:15:20.694Z,967.32
2018-03-06T11:17:13.570Z,967.26
2018-03-06T11:18:13.449Z,967.32
2018-03-06T11:20:06.303Z,967.29
2018-03-06T11:21:06.194Z,967.25
2018-03-06T11:22:59.589Z,967.28
2018-03-06T11:23:59.456Z,967.26
2018-03-06T11:25:52.320Z,967.22
2018-03-06T11:26:52.204Z,967.26
2018-03-06T11:28:45.088Z,967.21
2018-03-06T11:29:44.974Z,967.18
2018-03-06T11:31:37.814Z,967.20
2018-03-06T11:32:37.705Z,967.17
2018-03-06T11:34:30.588Z,967.16
2018-03-06T11:35:30.452Z,967.14
2018-03-06T11:37:23.324Z,967.19
2018-03-06T11:38:23.201Z,967.18
2018-03-06T11:40:16.073Z,967.22
2018-03-06T11:41:15.952Z,967.23
2018-03-06T11:43:08.811Z,967.22
2018-03-06T11:44:08.705Z,967.16
2018-03-06T11:46:01.738Z,967.12
2018-03-06T11:47:01.458Z,967.13
2018-03-06T11:48:54.350Z,967.12
2018-03-06T11:49:54.207Z,967.15
2018-03-06T11:51:47.172Z,967.15
2018-03-06T11:52:47.019Z,967.16
2018-03-06T11:54:39.799Z,967.16
2018-03-06T11:55:39.698Z,967.14
2018-03-06T11:57:32.563Z,967.10
2018-03-06T11:58:32.452Z,967.08
2018-03-06T12:00:25.298Z,967.09
2018-03-06T12:01:25.201Z,967.06
2018-03-06T12:03:19.616Z,967.05
2018-03-06T12:04:19.514Z,967.12
2018-03-06T12:06:12.332Z,967.08
2018-03-06T12:07:12.281Z,967.05
2018-03-06T12:09:05.108Z,967.10
2018-03-06T12:10:05.005Z,967.10
2018-03-06T12:11:57.854Z,967.09
2018-03-06T12:12:57.741Z,967.07
2018-03-06T12:14:50.616Z,967.05
2018-03-06T12:15:50.500Z,967.08
2018-03-06T12:17:43.378Z,967.08
2018-03-06T12:18:43.250Z,967.07
2018-03-06T12:20:36.110Z,967.08
2018-03-06T12:21:35.983Z,967.08
2018-03-06T12:23:29.361Z,967.08
2018-03-06T12:24:29.253Z,967.10
2018-03-06T12:26:22.105Z,967.11
2018-03-06T12:27:22.038Z,967.11
2018-03-06T12:29:14.839Z,967.13
2018-03-06T12:30:14.799Z,967.09
2018-03-06T12:32:08.631Z,967.11
2018-03-06T12:33:08.548Z,967.05
2018-03-06T12:35:01.930Z,967.06
2018-03-06T12:36:01.785Z,967.08
2018-03-06T12:37:54.768Z,967.07
2018-03-06T12:38:54.531Z,967.03
2018-03-06T12:40:47.389Z,967.02
2018-03-06T12:41:47.280Z,967.03
2018-03-06T12:43:40.175Z,967.02
2018-03-06T12:44:40.030Z,966.98
2018-03-06T12:46:32.878Z,967.01
2018-03-06T12:47:32.775Z,967.01
2018-03-06T12:49:25.650Z,967.02
2018-03-06T12:50:25.526Z,967.02
2018-03-06T12:52:18.396Z,967.02
2018-03-06T12:53:18.278Z,967.04
2018-03-06T12:55:11.427Z,967.03
2018-03-06T12:56:11.035Z,966.99
2018-03-06T12:58:03.892Z,966.99
2018-03-06T12:59:03.777Z,966.97
2018-03-06T13:00:57.154Z,966.94
2018-03-06T13:01:57.045Z,966.92
2018-03-06T13:03:49.888Z,966.97
2018-03-06T13:04:49.788Z,966.93
2018-03-06T13:06:42.665Z,966.96
2018-03-06T13:07:42.540Z,966.96
2018-03-06T13:09:35.390Z,966.94
2018-03-06T13:10:35.285Z,966.90
2018-03-06T13:12:28.214Z,966.90
2018-03-06T13:13:28.041Z,966.93
2018-03-06T13:15:21.012Z,966.93
2018-03-06T13:16:20.890Z,966.92
2018-03-06T13:18:13.752Z,966.93
2018-03-06T13:19:13.639Z,966.92
2018-03-06T13:21:06.496Z,966.91
2018-03-06T13:22:06.405Z,966.91
2018-03-06T13:23:59.251Z,966.92
2018-03-06T13:24:59.153Z,966.92
2018-03-06T13:26:51.981Z,966.89
2018-03-06T13:27:51.896Z,966.91
2018-03-06T13:29:44.750Z,966.91
2018-03-06T13:30:44.653Z,966.88
2018-03-06T13:32:37.516Z,966.86
2018-03-06T13:33:37.391Z,966.87
2018-03-06T13:35:30.274Z,966.91
2018-03-06T13:36:30.145Z,966.89
2018-03-06T13:38:22.996Z,966.87
2018-03-06T13:39:22.894Z,966.84
2018-03-06T13:41:15.747Z,966.84
2018-03-06T13:42:15.631Z,966.85
2018-03-06T13:44:08.632Z,966.83
2018-03-06T13:45:08.389Z,966.81
2018-03-06T13:47:02.285Z,966.74
2018-03-06T13:48:02.163Z,966.78
2018-03-06T13:49:55.017Z,966.78
2018-03-06T13:50:54.962Z,966.78
2018-03-06T13:52:47.782Z,966.74
2018-03-06T13:53:47.661Z,966.73
2018-03-06T13:55:40.519Z,966.72
2018-03-06T13:56:40.410Z,966.72
2018-03-06T13:58:33.180Z,966.70
2018-03-06T13:59:33.054Z,966.71
2018-03-06T14:01:25.907Z,966.70
2018-03-06T14:02:25.797Z,966.68
2018-03-06T14:04:18.665Z,966.67
2018-03-06T14:05:18.547Z,966.68
2018-03-06T14:07:11.400Z,966.65
2018-03-06T14:08:11.304Z,966.68
2018-03-06T14:10:04.181Z,966.63
2018-03-06T14:11:04.054Z,966.64
2018-03-06T14:12:57.205Z,966.60
2018-03-06T14:13:57.116Z,966.62
2018-03-06T14:15:49.968Z,966.61
2018-03-06T14:16:49.859Z,966.66
2018-03-06T14:18:42.733Z,966.61
2018-03-06T14:19:42.617Z,966.64
2018-03-06T14:21:35.478Z,966.64
2018-03-06T14:22:35.356Z,966.62
2018-03-06T14:24:28.221Z,966.61
2018-03-06T14:25:28.102Z,966.59
2018-03-06T14:27:20.975Z,966.60
2018-03-06T14:28:20.864Z,966.57
2018-03-06T14:30:13.699Z,966.60
2018-03-06T14:31:13.647Z,966.52
2018-03-06T14:33:06.477Z,966.56
2018-03-06T14:34:06.360Z,966.58
2018-03-06T14:35:59.345Z,966.54
2018-03-06T14:36:59.212Z,966.52
2018-03-06T14:38:52.180Z,966.56
2018-03-06T14:39:52.062Z,966.52
2018-03-06T14:41:45.009Z,966.50
2018-03-06T14:42:44.920Z,966.50
2018-03-06T14:44:37.890Z,966.44
2018-03-06T14:45:37.771Z,966.46
2018-03-06T14:47:30.622Z,966.47
2018-03-06T14:48:30.534Z,966.46
2018-03-06T14:50:23.377Z,966.47
2018-03-06T14:51:23.268Z,966.49
2018-03-06T14:53:17.138Z,966.46
2018-03-06T14:54:17.113Z,966.49
2018-03-06T14:56:09.894Z,966.47
2018-03-06T14:57:09.791Z,966.41
2018-03-06T14:59:02.634Z,966.46
2018-03-06T15:00:02.536Z,966.43
2018-03-06T15:01:55.389Z,966.41
2018-03-06T15:02:55.288Z,966.40
2018-03-06T15:04:48.133Z,966.44
2018-03-06T15:05:48.037Z,966.42
2018-03-06T15:07:40.893Z,966.40
2018-03-06T15:08:40.781Z,966.38
2018-03-06T15:10:33.652Z,966.37
2018-03-06T15:11:33.544Z,966.34
2018-03-06T15:13:26.400Z,966.36
2018-03-06T15:14:26.286Z,966.30
2018-03-06T15:16:19.229Z,966.30
2018-03-06T15:17:19.135Z,966.35
2018-03-06T15:19:11.914Z,966.32
2018-03-06T15:20:11.789Z,966.33
2018-03-06T15:22:04.536Z,966.31
2018-03-06T15:23:04.431Z,966.34
2018-03-06T15:24:57.233Z,966.32
2018-03-06T15:25:57.080Z,966.33
2018-03-06T15:27:49.847Z,966.34
2018-03-06T15:28:49.730Z,966.37
2018-03-06T15:30:42.507Z,966.33
2018-03-06T15:31:42.370Z,966.33
2018-03-06T15:33:35.121Z,966.35
2018-03-06T15:34:35.037Z,966.38
2018-03-06T15:36:27.801Z,966.40
2018-03-06T15:37:27.680Z,966.38
2018-03-06T15:39:20.417Z,966.36
2018-03-06T15:40:20.315Z,966.37
2018-03-06T15:42:13.076Z,966.42
2018-03-06T15:43:12.984Z,966.39
2018-03-06T15:45:05.731Z,966.39
2018-03-06T15:46:05.631Z,966.37
2018-03-06T15:47:58.399Z,966.41
2018-03-06T15:48:58.467Z,966.36
2018-03-06T15:50:51.128Z,966.39
2018-03-06T15:51:51.006Z,966.36
2018-03-06T15:53:43.890Z,966.38
2018-03-06T15:54:43.798Z,966.36
2018-03-06T15:56:36.946Z,966.36
2018-03-06T15:57:36.402Z,966.33
2018-03-06T15:59:29.266Z,966.37
2018-03-06T16:00:29.154Z,966.38
2018-03-06T16:02:22.463Z,966.42
2018-03-06T16:03:22.343Z,966.39
2018-03-06T16:05:15.180Z,966.42
2018-03-06T16:06:15.066Z,966.43
2018-03-06T16:08:07.812Z,966.44
2018-03-06T16:09:07.729Z,966.45
2018-03-06T16:11:00.511Z,966.45
2018-03-06T16:12:00.361Z,966.43
2018-03-06T16:13:53.115Z,966.48
2018-03-06T16:14:53.003Z,966.47
2018-03-06T16:16:45.803Z,966.46
2018-03-06T16:17:45.628Z,966.52
2018-03-06T16:19:38.488Z,966.54
2018-03-06T16:20:38.384Z,966.53
2018-03-06T16:22:31.155Z,966.51
2018-03-06T16:23:31.054Z,966.52
2018-03-06T16:25:23.802Z,966.55
2018-03-06T16:26:23.724Z,966.57
2018-03-06T16:28:21.574Z,966.57
2018-03-06T16:29:21.478Z,966.63
2018-03-06T16:31:14.309Z,966.63
2018-03-06T16:32:14.184Z,966.61
2018-03-06T16:34:12.094Z,966.60
2018-03-06T16:35:11.992Z,966.62
2018-03-06T16:37:05.276Z,966.60
2018-03-06T16:38:05.158Z,966.64
2018-03-06T16:39:58.440Z,966.67
2018-03-06T16:40:58.314Z,966.66
2018-03-06T16:42:54.118Z,966.67
2018-03-06T16:43:54.021Z,966.66
2018-03-06T16:45:48.318Z,966.68
2018-03-06T16:46:48.205Z,966.68
2018-03-06T16:48:40.965Z,966.69
2018-03-06T16:49:40.848Z,966.66
2018-03-06T16:51:33.613Z,966.68
2018-03-06T16:52:33.510Z,966.68
2018-03-06T16:54:26.330Z,966.67
2018-03-06T16:55:26.242Z,966.69
2018-03-06T16:57:18.998Z,966.65
2018-03-06T16:58:18.886Z,966.66
2018-03-06T17:00:11.765Z,966.71
2018-03-06T17:01:11.669Z,966.67
2018-03-06T17:03:04.481Z,966.68
2018-03-06T17:04:04.502Z,966.73
2018-03-06T17:05:57.227Z,966.74
2018-03-06T17:06:57.160Z,966.75
2018-03-06T17:08:49.995Z,966.77
2018-03-06T17:09:49.888Z,966.71
2018-03-06T17:11:42.613Z,966.78
2018-03-06T17:12:42.502Z,966.80
2018-03-06T17:14:35.288Z,966.83
2018-03-06T17:15:35.156Z,966.79
2018-03-06T17:17:28.029Z,966.80
2018-03-06T17:18:27.923Z,966.84
2018-03-06T17:20:20.685Z,966.86
2018-03-06T17:21:20.572Z,966.83
2018-03-06T17:23:13.365Z,966.83
2018-03-06T17:24:13.233Z,966.81
2018-03-06T17:26:05.991Z,966.77
2018-03-06T17:27:05.869Z,966.78
2018-03-06T17:28:58.721Z,966.82
2018-03-06T17:29:58.615Z,966.84
2018-03-06T17:31:51.374Z,966.84
2018-03-06T17:32:51.240Z,966.84
2018-03-06T17:34:44.007Z,966.81
2018-03-06T17:35:43.911Z,966.84
2018-03-06T17:37:36.786Z,966.86
2018-03-06T17:38:36.655Z,966.85
2018-03-06T17:40:29.506Z,966.87
2018-03-06T17:41:29.425Z,966.87
2018-03-06T17:43:22.300Z,966.87
2018-03-06T17:44:22.153Z,966.85
2018-03-06T17:46:15.014Z,966.87
2018-03-06T17:47:14.886Z,966.87
2018-03-06T17:49:07.751Z,966.86
2018-03-06T17:50:07.641Z,966.88
2018-03-06T17:52:00.430Z,966.85
2018-03-06T17:53:00.350Z,966.85
2018-03-06T17:54:53.689Z,966.85
2018-03-06T17:55:53.567Z,966.82
2018-03-06T17:57:46.315Z,966.87